Time;durP1;ratioP1;P1;durP2;ratioP2;P2;SDS_P1;SDS_P2;PMS_P1;PMS_P2;Temp;Humidity;BMP_temperature;BMP_pressure;BME280_temperature;BME280_humidity;BME280_pressure;Samples;Min_cycle;Max_cycle;Signal;HPM_P1;HPM_P2
2021/05/25 00:00:08;;;;;;;4.75;3.03;;;;;;;;;;4976290;28;20033;-80
2021/05/25 00:02:34;;;;;;;4.97;3.25;;;;;;;;;;4976222;28;20026;-80
2021/05/25 00:05:01;;;;;;;6.75;3.03;;;;;;;;;;4976841;28;20113;-80
2021/05/25 00:07:27;;;;;;;7.43;3.13;;;;;;;;;;4976157;28;20105;-80
2021/05/25 00:09:54;;;;;;;4.93;2.67;;;;;;;;;;4976179;28;20062;-80
2021/05/25 00:12:20;;;;;;;4.97;3.03;;;;;;;;;;4976201;28;20030;-80
2021/05/25 00:14:46;;;;;;;5.55;3.35;;;;;;;;;;4975898;28;20044;-80
2021/05/25 00:17:13;;;;;;;6.78;3.55;;;;;;;;;;4990994;28;20360;-80
2021/05/25 00:19:39;;;;;;;6.43;3.00;;;;;;;;;;4975981;28;20027;-80
2021/05/25 00:22:06;;;;;;;5.28;3.35;;;;;;;;;;4976063;28;20034;-80
2021/05/25 00:24:33;;;;;;;5.60;3.63;;;;;;;;;;4975810;28;20027;-80
2021/05/25 00:26:59;;;;;;;5.78;3.28;;;;;;;;;;4976396;28;20033;-80
2021/05/25 00:29:26;;;;;;;10.65;3.15;;;;;;;;;;4975375;28;20026;-80
2021/05/25 00:31:52;;;;;;;10.48;3.40;;;;;;;;;;4990572;28;20035;-80
2021/05/25 00:34:19;;;;;;;6.18;3.05;;;;;;;;;;4975881;28;20027;-80
2021/05/25 00:36:45;;;;;;;5.95;3.25;;;;;;;;;;4975858;28;20034;-80
2021/05/25 00:39:11;;;;;;;6.88;2.63;;;;;;;;;;4975870;28;20475;-80
2021/05/25 00:41:38;;;;;;;4.40;2.63;;;;;;;;;;4976161;28;20027;-79
2021/05/25 00:44:07;;;;;;;7.40;3.30;;;;;;;;;;4990570;28;20023;-80
2021/05/25 00:46:33;;;;;;;6.32;3.58;;;;;;;;;;4990256;28;20063;-80
2021/05/25 00:48:59;;;;;;;6.25;3.15;;;;;;;;;;4976039;28;20027;-80
2021/05/25 00:51:26;;;;;;;5.10;2.90;;;;;;;;;;4991193;28;20058;-80
2021/05/25 00:53:52;;;;;;;4.82;2.85;;;;;;;;;;4979512;28;20023;-80
2021/05/25 00:56:18;;;;;;;10.88;3.88;;;;;;;;;;4980082;28;20030;-80
2021/05/25 00:58:46;;;;;;;5.22;3.20;;;;;;;;;;4979697;28;20051;-79
2021/05/25 01:01:12;;;;;;;8.95;2.70;;;;;;;;;;4979013;28;20031;-80
2021/05/25 01:03:38;;;;;;;7.28;3.25;;;;;;;;;;4979640;28;20035;-80
2021/05/25 01:06:04;;;;;;;6.28;3.13;;;;;;;;;;4994433;28;20042;-80
2021/05/25 01:08:32;;;;;;;5.85;3.25;;;;;;;;;;4979201;28;20134;-80
2021/05/25 01:11:04;;;;;;;5.95;3.38;;;;;;;;;;4979392;28;20408;-80
2021/05/25 01:13:34;;;;;;;5.95;3.28;;;;;;;;;;4994479;28;20026;-80
2021/05/25 01:16:00;;;;;;;5.05;3.03;;;;;;;;;;4994292;28;20053;-79
2021/05/25 01:18:26;;;;;;;4.45;2.90;;;;;;;;;;4979312;28;20015;-80
2021/05/25 01:20:53;;;;;;;7.38;3.50;;;;;;;;;;4994203;28;20027;-80
2021/05/25 01:23:19;;;;;;;6.60;3.17;;;;;;;;;;4994394;28;20038;-80
2021/05/25 01:25:47;;;;;;;5.65;3.50;;;;;;;;;;4994080;28;20435;-80
2021/05/25 01:28:14;;;;;;;5.68;3.38;;;;;;;;;;4979493;28;20013;-80
2021/05/25 01:30:42;;;;;;;7.43;3.42;;;;;;;;;;4980453;28;20419;-80
2021/05/25 01:33:09;;;;;;;6.53;3.55;;;;;;;;;;4993604;28;20034;-80
2021/05/25 01:35:36;;;;;;;4.93;2.92;;;;;;;;;;4977878;28;20027;-80
2021/05/25 01:38:03;;;;;;;6.57;3.20;;;;;;;;;;4978963;28;20102;-80
2021/05/25 01:40:30;;;;;;;5.18;3.45;;;;;;;;;;4993894;28;20526;-80
2021/05/25 01:42:56;;;;;;;8.38;3.30;;;;;;;;;;4979233;28;20042;-80
2021/05/25 01:45:24;;;;;;;7.15;3.33;;;;;;;;;;4979499;28;20081;-80
2021/05/25 01:47:52;;;;;;;5.03;3.10;;;;;;;;;;4978747;28;20023;-80
2021/05/25 01:50:19;;;;;;;6.57;3.53;;;;;;;;;;4978348;28;20031;-80
2021/05/25 01:52:52;;;;;;;5.60;3.13;;;;;;;;;;4993696;28;20029;-80
2021/05/25 01:55:28;;;;;;;5.47;2.88;;;;;;;;;;4993912;28;20050;-81
2021/05/25 01:57:55;;;;;;;6.25;3.50;;;;;;;;;;4993544;28;20067;-80
2021/05/25 02:00:22;;;;;;;6.32;3.33;;;;;;;;;;4978464;28;20436;-80
2021/05/25 02:02:49;;;;;;;6.55;3.00;;;;;;;;;;4978329;28;20039;-80
2021/05/25 02:05:15;;;;;;;7.63;3.13;;;;;;;;;;4977908;28;20038;-79
2021/05/25 02:07:45;;;;;;;7.65;3.10;;;;;;;;;;4977506;28;20085;-79
2021/05/25 02:10:20;;;;;;;5.03;2.90;;;;;;;;;;4978182;28;20492;-80
2021/05/25 02:12:46;;;;;;;5.53;3.30;;;;;;;;;;4993102;28;20109;-80
2021/05/25 02:15:13;;;;;;;7.20;3.67;;;;;;;;;;4993415;28;20477;-80
2021/05/25 02:17:40;;;;;;;6.45;3.45;;;;;;;;;;4977977;28;20494;-80
2021/05/25 02:20:07;;;;;;;5.78;3.40;;;;;;;;;;4978056;28;20042;-80
2021/05/25 02:22:33;;;;;;;9.52;3.58;;;;;;;;;;4978257;28;20058;-80
2021/05/25 02:25:00;;;;;;;7.07;3.90;;;;;;;;;;4977461;28;20026;-80
2021/05/25 02:27:26;;;;;;;5.82;3.22;;;;;;;;;;4978050;28;20093;-80
2021/05/25 02:29:52;;;;;;;7.65;3.63;;;;;;;;;;4978608;28;20118;-81
2021/05/25 02:32:18;;;;;;;7.20;3.95;;;;;;;;;;4992916;28;20027;-81
2021/05/25 02:34:44;;;;;;;6.50;3.85;;;;;;;;;;4992972;28;20026;-80
2021/05/25 02:37:11;;;;;;;6.57;3.95;;;;;;;;;;4992752;28;20066;-80
2021/05/25 02:39:37;;;;;;;7.25;3.83;;;;;;;;;;4977266;28;20023;-80
2021/05/25 02:42:04;;;;;;;10.88;4.03;;;;;;;;;;4992817;28;20035;-80
2021/05/25 02:44:30;;;;;;;6.43;2.97;;;;;;;;;;4977682;28;20031;-80
2021/05/25 02:46:57;;;;;;;5.95;3.65;;;;;;;;;;4977971;28;20101;-80
2021/05/25 02:49:23;;;;;;;4.93;3.00;;;;;;;;;;4978083;28;20174;-80
2021/05/25 02:51:49;;;;;;;5.38;2.88;;;;;;;;;;4978210;28;20474;-80
2021/05/25 02:54:16;;;;;;;5.60;3.70;;;;;;;;;;4976928;28;20030;-81
2021/05/25 02:56:42;;;;;;;11.45;4.55;;;;;;;;;;4977468;28;20037;-80
2021/05/25 02:59:09;;;;;;;8.05;4.03;;;;;;;;;;4977975;28;20054;-80
2021/05/25 03:01:35;;;;;;;7.10;3.90;;;;;;;;;;4977947;28;20101;-80
2021/05/25 03:04:02;;;;;;;7.70;3.80;;;;;;;;;;4977162;28;20128;-80
2021/05/25 03:06:28;;;;;;;6.38;3.70;;;;;;;;;;4992310;28;20031;-80
2021/05/25 03:11:41;;;;;;;6.25;3.70;;;;;;;;;;4977011;28;20063;-77
2021/05/25 03:14:07;;;;;;;6.57;3.63;;;;;;;;;;4976380;28;20057;-78
2021/05/25 03:16:35;;;;;;;5.90;3.65;;;;;;;;;;4976053;28;20376;-80
2021/05/25 03:19:04;;;;;;;5.85;3.92;;;;;;;;;;4976987;28;20604;-81
2021/05/25 03:21:32;;;;;;;7.38;3.80;;;;;;;;;;4977385;28;20023;-80
2021/05/25 03:24:00;;;;;;;7.22;3.80;;;;;;;;;;4991865;28;20035;-80
2021/05/25 03:26:28;;;;;;;6.13;3.80;;;;;;;;;;4977165;28;20029;-80
2021/05/25 03:28:56;;;;;;;5.55;3.30;;;;;;;;;;4976973;28;20041;-79
2021/05/25 03:31:24;;;;;;;8.52;4.28;;;;;;;;;;4976871;28;20030;-80
2021/05/25 03:33:52;;;;;;;7.10;4.20;;;;;;;;;;4976621;28;20519;-79
2021/05/25 03:36:18;;;;;;;8.10;4.00;;;;;;;;;;4976799;28;20038;-79
2021/05/25 03:38:46;;;;;;;7.40;3.95;;;;;;;;;;4976898;28;20097;-79
2021/05/25 03:41:14;;;;;;;6.13;3.50;;;;;;;;;;4976652;28;20031;-79
2021/05/25 03:43:41;;;;;;;7.55;3.58;;;;;;;;;;4976794;28;20042;-78
2021/05/25 03:46:07;;;;;;;7.40;3.78;;;;;;;;;;4976916;28;20035;-78
2021/05/25 03:48:35;;;;;;;7.78;3.60;;;;;;;;;;4976702;28;20042;-80
2021/05/25 03:51:02;;;;;;;6.15;3.80;;;;;;;;;;4977058;28;20026;-79
2021/05/25 03:53:29;;;;;;;5.97;3.70;;;;;;;;;;4976680;28;20491;-80
2021/05/25 03:56:15;;;;;;;8.68;3.22;;;;;;;;;;4991734;28;20034;-80
2021/05/25 03:58:49;;;;;;;4.85;3.38;;;;;;;;;;4976566;28;20089;-79
2021/05/25 04:01:19;;;;;;;5.00;3.03;;;;;;;;;;4991361;28;20026;-80
2021/05/25 04:03:46;;;;;;;6.32;3.67;;;;;;;;;;4991177;28;20045;-80
2021/05/25 04:06:13;;;;;;;8.75;3.72;;;;;;;;;;4976785;28;20031;-80
2021/05/25 04:08:39;;;;;;;9.55;3.80;;;;;;;;;;4975447;28;20061;-80
2021/05/25 04:11:07;;;;;;;7.55;3.40;;;;;;;;;;4976378;28;20082;-80
2021/05/25 04:13:33;;;;;;;7.40;3.88;;;;;;;;;;4991072;28;20503;-80
2021/05/25 04:16:00;;;;;;;7.15;3.55;;;;;;;;;;4976198;28;20054;-80
2021/05/25 04:18:27;;;;;;;8.05;3.95;;;;;;;;;;4976228;28;20006;-80
2021/05/25 04:20:53;;;;;;;8.48;3.78;;;;;;;;;;4976598;28;20026;-79
2021/05/25 04:23:20;;;;;;;7.80;3.60;;;;;;;;;;4975907;28;20034;-80
2021/05/25 04:25:47;;;;;;;12.23;3.90;;;;;;;;;;4990994;28;20030;-80
2021/05/25 04:28:15;;;;;;;6.68;4.10;;;;;;;;;;4976360;28;20157;-80
2021/05/25 04:30:42;;;;;;;7.20;3.75;;;;;;;;;;4990679;28;20379;-80
2021/05/25 04:33:08;;;;;;;15.85;5.78;;;;;;;;;;4990978;28;20586;-79
2021/05/25 04:35:35;;;;;;;10.98;5.30;;;;;;;;;;4976120;28;20027;-79
2021/05/25 04:38:02;;;;;;;15.93;4.82;;;;;;;;;;4990229;28;20090;-80
2021/05/25 04:40:29;;;;;;;10.80;3.90;;;;;;;;;;4975664;28;20468;-79
2021/05/25 04:42:56;;;;;;;10.68;4.15;;;;;;;;;;4990522;28;20031;-79
2021/05/25 04:45:23;;;;;;;7.35;4.13;;;;;;;;;;4975674;28;20029;-79
2021/05/25 04:47:49;;;;;;;6.57;4.00;;;;;;;;;;4990327;28;20026;-80
2021/05/25 04:50:18;;;;;;;7.57;3.83;;;;;;;;;;4975406;28;20061;-80
2021/05/25 04:52:44;;;;;;;7.30;3.85;;;;;;;;;;4990428;28;20365;-79
2021/05/25 04:55:13;;;;;;;5.32;3.47;;;;;;;;;;4974955;28;20078;-80
2021/05/25 04:57:39;;;;;;;6.25;3.88;;;;;;;;;;4990264;28;20042;-80
2021/05/25 05:00:06;;;;;;;6.82;4.00;;;;;;;;;;4990231;28;20065;-77
2021/05/25 05:02:33;;;;;;;7.00;3.80;;;;;;;;;;4975274;28;20062;-79
2021/05/25 05:04:59;;;;;;;5.65;3.50;;;;;;;;;;4974952;28;20038;-79
2021/05/25 05:07:25;;;;;;;5.25;2.80;;;;;;;;;;4990143;28;20031;-79
2021/05/25 05:09:52;;;;;;;6.82;2.63;;;;;;;;;;4989568;28;20034;-76
2021/05/25 05:12:18;;;;;;;5.03;2.30;;;;;;;;;;4975090;28;20090;-77
2021/05/25 05:14:44;;;;;;;4.55;2.70;;;;;;;;;;4990148;28;20022;-79
2021/05/25 05:17:11;;;;;;;4.85;2.55;;;;;;;;;;4976424;28;20468;-79
2021/05/25 05:19:37;;;;;;;3.75;1.95;;;;;;;;;;4975395;28;20101;-79
2021/05/25 05:22:03;;;;;;;4.13;2.20;;;;;;;;;;4974241;28;20139;-79
2021/05/25 05:24:30;;;;;;;4.47;1.60;;;;;;;;;;4974599;28;20399;-87
2021/05/25 05:26:56;;;;;;;2.13;1.23;;;;;;;;;;4990219;28;20027;-87
2021/05/25 05:29:22;;;;;;;2.63;1.80;;;;;;;;;;4975856;28;20027;-86
2021/05/25 05:31:49;;;;;;;3.80;2.00;;;;;;;;;;4991814;28;20078;-87
2021/05/25 05:34:15;;;;;;;5.68;2.17;;;;;;;;;;4990967;28;20026;-86
2021/05/25 05:36:42;;;;;;;6.30;2.08;;;;;;;;;;4990545;28;20031;-86
2021/05/25 05:39:08;;;;;;;3.95;2.20;;;;;;;;;;4976389;28;20042;-87
2021/05/25 05:41:34;;;;;;;3.63;2.20;;;;;;;;;;4994007;28;20023;-82
2021/05/25 05:44:00;;;;;;;4.15;1.60;;;;;;;;;;4991961;28;20066;-81
2021/05/25 05:46:26;;;;;;;3.15;1.23;;;;;;;;;;4992451;28;20113;-82
2021/05/25 05:48:53;;;;;;;4.45;1.63;;;;;;;;;;4978635;28;20039;-82
2021/05/25 05:51:19;;;;;;;3.30;1.50;;;;;;;;;;4993776;28;20435;-83
2021/05/25 05:53:46;;;;;;;7.50;1.40;;;;;;;;;;4991121;28;20057;-84
2021/05/25 05:56:12;;;;;;;2.03;1.20;;;;;;;;;;4978608;28;20094;-83
2021/05/25 05:58:38;;;;;;;2.45;1.63;;;;;;;;;;4978480;28;20431;-83
2021/05/25 06:01:05;;;;;;;2.20;1.30;;;;;;;;;;4993495;28;20472;-81
2021/05/25 06:03:31;;;;;;;3.58;1.35;;;;;;;;;;4993444;28;20030;-83
2021/05/25 06:05:57;;;;;;;5.38;1.08;;;;;;;;;;4993439;28;20392;-83
2021/05/25 06:08:23;;;;;;;2.08;0.90;;;;;;;;;;4992395;28;20105;-81
2021/05/25 06:10:51;;;;;;;5.07;1.02;;;;;;;;;;4992569;28;20031;-84
2021/05/25 06:13:25;;;;;;;2.40;1.25;;;;;;;;;;4993498;28;20109;-84
2021/05/25 06:15:58;;;;;;;2.73;0.83;;;;;;;;;;4993376;28;20053;-82
2021/05/25 06:18:24;;;;;;;7.30;1.30;;;;;;;;;;4979058;28;20309;-84
2021/05/25 06:20:50;;;;;;;6.88;1.63;;;;;;;;;;4978638;28;20065;-83
2021/05/25 06:23:16;;;;;;;2.90;1.00;;;;;;;;;;4978186;28;20475;-83
2021/05/25 06:25:43;;;;;;;2.17;1.02;;;;;;;;;;4992899;28;20019;-83
2021/05/25 06:28:09;;;;;;;6.97;1.20;;;;;;;;;;4992531;28;20027;-83
2021/05/25 06:30:36;;;;;;;1.95;0.98;;;;;;;;;;4978129;28;20023;-84
2021/05/25 06:33:03;;;;;;;1.88;0.95;;;;;;;;;;4992920;28;20067;-83
2021/05/25 06:35:29;;;;;;;1.73;0.90;;;;;;;;;;4977889;28;20510;-83
2021/05/25 06:37:55;;;;;;;2.40;0.80;;;;;;;;;;4978153;28;20031;-82
2021/05/25 06:40:21;;;;;;;2.75;0.70;;;;;;;;;;4992649;28;20031;-85
2021/05/25 06:42:47;;;;;;;1.08;0.55;;;;;;;;;;4990598;28;20654;-81
2021/05/25 06:45:14;;;;;;;1.60;0.63;;;;;;;;;;4992103;28;20046;-83
2021/05/25 06:47:41;;;;;;;1.77;0.70;;;;;;;;;;4975202;28;20122;-81
2021/05/25 06:50:07;;;;;;;1.20;0.70;;;;;;;;;;4975918;28;20023;-82
2021/05/25 06:52:34;;;;;;;1.77;0.70;;;;;;;;;;4977722;28;20027;-82
2021/05/25 06:55:02;;;;;;;1.83;0.63;;;;;;;;;;4992610;28;20038;-82
2021/05/25 06:57:29;;;;;;;1.27;0.45;;;;;;;;;;4976850;28;20432;-81
2021/05/25 06:59:55;;;;;;;5.00;0.60;;;;;;;;;;4977311;28;20074;-81
2021/05/25 07:02:23;;;;;;;1.92;0.60;;;;;;;;;;4992337;28;20058;-81
2021/05/25 07:04:52;;;;;;;1.73;0.70;;;;;;;;;;4977605;28;20101;-82
2021/05/25 07:07:18;;;;;;;2.08;0.80;;;;;;;;;;4975846;28;20122;-82
2021/05/25 07:09:44;;;;;;;1.08;0.47;;;;;;;;;;4972894;28;20047;-83
2021/05/25 07:12:11;;;;;;;0.80;0.40;;;;;;;;;;4957986;29;20027;-82
2021/05/25 07:14:37;;;;;;;0.90;0.40;;;;;;;;;;4972754;28;20039;-82
2021/05/25 07:17:04;;;;;;;1.42;0.63;;;;;;;;;;4972830;28;20126;-84
2021/05/25 07:19:30;;;;;;;1.63;0.45;;;;;;;;;;4957917;29;20484;-83
2021/05/25 07:21:56;;;;;;;7.00;2.85;;;;;;;;;;4988223;28;20081;-82
2021/05/25 07:24:22;;;;;;;5.15;1.05;;;;;;;;;;4977133;28;20014;-82
2021/05/25 07:26:48;;;;;;;1.83;0.60;;;;;;;;;;4992128;28;20027;-82
2021/05/25 07:29:14;;;;;;;0.60;0.40;;;;;;;;;;4992006;28;20468;-83
2021/05/25 07:31:41;;;;;;;6.90;2.72;;;;;;;;;;4992342;28;20122;-84
2021/05/25 07:34:07;;;;;;;2.80;1.30;;;;;;;;;;4976532;28;20480;-82
2021/05/25 07:36:33;;;;;;;1.60;0.73;;;;;;;;;;4977117;28;20033;-82
2021/05/25 07:38:59;;;;;;;2.67;1.00;;;;;;;;;;4991844;28;20022;-83
2021/05/25 07:41:25;;;;;;;1.00;0.50;;;;;;;;;;4991973;28;20022;-85
2021/05/25 07:43:51;;;;;;;2.58;1.20;;;;;;;;;;4990846;28;20105;-86
2021/05/25 07:46:18;;;;;;;6.22;3.38;;;;;;;;;;4991956;28;20424;-83
2021/05/25 07:48:46;;;;;;;3.13;2.10;;;;;;;;;;4991717;28;20027;-84
2021/05/25 07:51:12;;;;;;;3.55;1.50;;;;;;;;;;4992581;28;20042;-82
2021/05/25 07:53:38;;;;;;;2.90;1.30;;;;;;;;;;4991948;28;20065;-83
2021/05/25 07:56:04;;;;;;;1.67;0.50;;;;;;;;;;4991418;28;20027;-82
2021/05/25 07:58:30;;;;;;;1.40;0.63;;;;;;;;;;4976384;28;20035;-81
2021/05/25 08:00:57;;;;;;;2.17;0.50;;;;;;;;;;4990699;28;20034;-82
2021/05/25 08:03:24;;;;;;;1.08;0.50;;;;;;;;;;4991520;28;20038;-83
2021/05/25 08:05:50;;;;;;;0.57;0.30;;;;;;;;;;4991095;28;20051;-83
2021/05/25 08:08:16;;;;;;;0.82;0.20;;;;;;;;;;4990747;28;20495;-84
2021/05/25 08:10:42;;;;;;;0.28;0.15;;;;;;;;;;4990955;28;20050;-84
2021/05/25 08:13:08;;;;;;;0.40;0.20;;;;;;;;;;4991734;28;20027;-84
2021/05/25 08:15:36;;;;;;;0.60;0.20;;;;;;;;;;4990726;28;20069;-84
2021/05/25 08:18:50;;;;;;;0.28;0.10;;;;;;;;;;4975075;28;20034;-83
2021/05/25 08:20:48;;;;;;;1.23;0.10;;;;;;;;;;4968243;28;20023;-82
2021/05/25 08:23:15;;;;;;;0.43;0.10;;;;;;;;;;4974862;28;20044;-82
2021/05/25 08:25:42;;;;;;;0.40;0.17;;;;;;;;;;4974927;28;20113;-82
2021/05/25 08:28:09;;;;;;;0.20;0.10;;;;;;;;;;4975941;28;20062;-81
2021/05/25 08:30:39;;;;;;;0.68;0.20;;;;;;;;;;4976035;28;20510;-82
2021/05/25 08:33:05;;;;;;;0.60;0.20;;;;;;;;;;4975860;28;20038;-83
2021/05/25 08:35:35;;;;;;;2.92;0.22;;;;;;;;;;4973695;28;20026;-84
2021/05/25 08:38:02;;;;;;;1.00;0.30;;;;;;;;;;4974228;28;20027;-83
2021/05/25 08:40:29;;;;;;;4.40;0.30;;;;;;;;;;4974554;28;20526;-83
2021/05/25 08:42:55;;;;;;;0.95;0.30;;;;;;;;;;4974708;28;20031;-82
2021/05/25 08:45:22;;;;;;;2.40;0.20;;;;;;;;;;4974478;28;20081;-82
2021/05/25 08:47:52;;;;;;;1.02;0.32;;;;;;;;;;4974243;28;20027;-83
2021/05/25 08:50:19;;;;;;;0.82;0.32;;;;;;;;;;4974441;28;20027;-82
2021/05/25 08:52:46;;;;;;;0.60;0.30;;;;;;;;;;4975097;28;20026;-83
2021/05/25 08:55:13;;;;;;;1.35;0.25;;;;;;;;;;4974971;28;20058;-82
2021/05/25 08:57:39;;;;;;;1.63;0.50;;;;;;;;;;4975883;28;20030;-82
2021/05/25 09:00:07;;;;;;;2.50;0.20;;;;;;;;;;4975711;28;20077;-83
2021/05/25 09:02:34;;;;;;;1.52;0.50;;;;;;;;;;4974504;28;20023;-82
2021/05/25 09:05:00;;;;;;;0.93;0.35;;;;;;;;;;4974572;28;20038;-84
2021/05/25 09:07:47;;;;;;;3.47;0.45;;;;;;;;;;4974012;28;20031;-82
2021/05/25 09:10:15;;;;;;;0.65;0.25;;;;;;;;;;4975559;28;20027;-84
2021/05/25 09:12:44;;;;;;;0.63;0.30;;;;;;;;;;4973710;28;20118;-83
2021/05/25 09:15:11;;;;;;;1.08;0.30;;;;;;;;;;4976958;28;20037;-82
2021/05/25 09:17:37;;;;;;;0.82;0.28;;;;;;;;;;4994780;28;20061;-82
2021/05/25 09:20:04;;;;;;;1.23;0.45;;;;;;;;;;4994249;28;20023;-84
2021/05/25 09:22:30;;;;;;;2.13;0.20;;;;;;;;;;4994330;28;20480;-82
2021/05/25 09:24:57;;;;;;;0.70;0.32;;;;;;;;;;4994252;28;20130;-80
2021/05/25 09:27:38;;;;;;;0.80;0.30;;;;;;;;;;4994412;28;20023;-81
2021/05/25 09:30:36;;;;;;;1.85;0.30;;;;;;;;;;4993921;28;20035;-81
2021/05/25 09:33:04;;;;;;;0.60;0.20;;;;;;;;;;4992786;28;20023;-80
2021/05/25 09:35:31;;;;;;;1.35;0.20;;;;;;;;;;4994161;28;20093;-82
2021/05/25 09:38:00;;;;;;;2.97;0.40;;;;;;;;;;4993489;28;20483;-83
2021/05/25 09:40:27;;;;;;;3.58;0.38;;;;;;;;;;4978734;28;20465;-83
2021/05/25 09:42:56;;;;;;;1.63;0.32;;;;;;;;;;4994192;28;20035;-84
2021/05/25 09:45:23;;;;;;;0.73;0.30;;;;;;;;;;4995242;28;20427;-83
2021/05/25 09:47:53;;;;;;;2.78;0.25;;;;;;;;;;4979624;28;20031;-82
2021/05/25 09:50:23;;;;;;;0.60;0.22;;;;;;;;;;4993238;28;20514;-82
2021/05/25 09:52:59;;;;;;;3.55;1.50;;;;;;;;;;4993040;28;20022;-81
2021/05/25 09:55:26;;;;;;;6.30;2.15;;;;;;;;;;4993382;28;20034;-82
2021/05/25 09:57:54;;;;;;;1.80;0.80;;;;;;;;;;4993293;28;20037;-81
2021/05/25 10:00:24;;;;;;;2.15;0.50;;;;;;;;;;4977995;28;20042;-83
2021/05/25 10:03:04;;;;;;;1.02;0.30;;;;;;;;;;4978798;28;20031;-82
2021/05/25 10:05:31;;;;;;;0.38;0.20;;;;;;;;;;4993439;28;20073;-80
2021/05/25 10:07:59;;;;;;;1.45;0.20;;;;;;;;;;4993152;28;20050;-82
2021/05/25 10:10:25;;;;;;;1.15;0.38;;;;;;;;;;4993503;28;20022;-82
2021/05/25 10:12:52;;;;;;;2.58;0.50;;;;;;;;;;4993490;28;20057;-82
2021/05/25 10:15:18;;;;;;;0.60;0.30;;;;;;;;;;4987760;28;20425;-82
2021/05/25 10:18:08;;;;;;;1.15;0.30;;;;;;;;;;4958386;28;20028;-82
2021/05/25 10:20:33;;;;;;;0.60;0.30;;;;;;;;;;4958736;28;20392;-79
2021/05/25 10:23:00;;;;;;;0.95;0.32;;;;;;;;;;4958499;28;20023;-81
2021/05/25 10:25:28;;;;;;;0.40;0.20;;;;;;;;;;4973101;28;20389;-81
2021/05/25 10:27:54;;;;;;;1.10;0.30;;;;;;;;;;4973850;28;20608;-80
2021/05/25 10:30:26;;;;;;;2.22;0.30;;;;;;;;;;4958890;28;20106;-80
2021/05/25 10:32:53;;;;;;;0.73;0.30;;;;;;;;;;4958706;28;20517;-79
2021/05/25 10:35:20;;;;;;;0.82;0.20;;;;;;;;;;4958825;28;20154;-81
2021/05/25 10:38:05;;;;;;;1.00;0.30;;;;;;;;;;4973351;28;20396;-80
2021/05/25 10:40:41;;;;;;;1.80;0.40;;;;;;;;;;4973585;28;20056;-84
2021/05/25 10:43:26;;;;;;;1.85;0.40;;;;;;;;;;4973352;28;20043;-83
2021/05/25 10:45:55;;;;;;;2.70;0.40;;;;;;;;;;4973507;28;20028;-83
2021/05/25 10:48:41;;;;;;;0.77;0.30;;;;;;;;;;4958137;28;20071;-83
2021/05/25 10:51:07;;;;;;;2.38;0.30;;;;;;;;;;4973566;28;20027;-83
2021/05/25 10:53:33;;;;;;;1.38;0.40;;;;;;;;;;4957774;28;20028;-82
2021/05/25 10:56:12;;;;;;;5.28;0.50;;;;;;;;;;4973198;28;20083;-82
2021/05/25 10:58:39;;;;;;;0.80;0.28;;;;;;;;;;4973295;28;20030;-83
2021/05/25 11:01:09;;;;;;;0.45;0.20;;;;;;;;;;4973253;28;20030;-82
2021/05/25 11:03:35;;;;;;;0.50;0.20;;;;;;;;;;4973154;28;20518;-82
2021/05/25 11:06:03;;;;;;;1.98;0.50;;;;;;;;;;4973019;28;20428;-82
2021/05/25 11:08:31;;;;;;;1.73;0.70;;;;;;;;;;4972836;28;20102;-83
2021/05/25 11:11:10;;;;;;;1.30;0.20;;;;;;;;;;4973601;28;20066;-82
2021/05/25 11:13:48;;;;;;;2.20;0.30;;;;;;;;;;4959253;28;20027;-80
2021/05/25 11:21:33;;;;;;;1.40;0.40;;;;;;;;;;4977490;28;20042;-81
2021/05/25 11:23:59;;;;;;;2.80;0.47;;;;;;;;;;4991129;28;20035;-82
2021/05/25 11:26:44;;;;;;;1.00;0.40;;;;;;;;;;4992116;28;20023;-83
2021/05/25 11:29:20;;;;;;;0.52;0.30;;;;;;;;;;4992056;28;20460;-82
2021/05/25 11:31:47;;;;;;;0.50;0.20;;;;;;;;;;4976790;28;20030;-83
2021/05/25 11:34:14;;;;;;;4.72;0.50;;;;;;;;;;4992134;28;20484;-81
2021/05/25 11:36:40;;;;;;;3.03;0.40;;;;;;;;;;4991206;28;20073;-81
2021/05/25 11:39:08;;;;;;;1.50;0.40;;;;;;;;;;4991683;28;20030;-83
2021/05/25 11:41:34;;;;;;;3.92;0.32;;;;;;;;;;4976844;28;20077;-82
2021/05/25 11:44:04;;;;;;;1.88;0.40;;;;;;;;;;4992226;28;20125;-81
2021/05/25 11:46:48;;;;;;;1.52;0.45;;;;;;;;;;4976591;28;20022;-82
2021/05/25 11:49:15;;;;;;;0.77;0.30;;;;;;;;;;4990912;28;20379;-83
2021/05/25 11:51:42;;;;;;;2.50;0.40;;;;;;;;;;4991410;28;20451;-80
2021/05/25 11:54:12;;;;;;;0.80;0.32;;;;;;;;;;4976471;28;20022;-82
2021/05/25 11:56:38;;;;;;;1.77;0.50;;;;;;;;;;4976572;28;20043;-82
2021/05/25 11:59:11;;;;;;;2.53;0.60;;;;;;;;;;4991551;28;20011;-81
2021/05/25 12:02:03;;;;;;;1.70;0.50;;;;;;;;;;4991669;28;20030;-81
2021/05/25 12:04:31;;;;;;;1.38;0.43;;;;;;;;;;4974216;28;20433;-81
2021/05/25 12:06:58;;;;;;;1.50;0.65;;;;;;;;;;4991243;28;20395;-81
2021/05/25 12:09:29;;;;;;;1.17;0.40;;;;;;;;;;4991290;28;20046;-81
2021/05/25 12:11:56;;;;;;;4.88;0.60;;;;;;;;;;4990590;28;20022;-81
2021/05/25 12:14:28;;;;;;;12.63;0.70;;;;;;;;;;4991344;28;20109;-82
2021/05/25 12:16:58;;;;;;;2.38;0.60;;;;;;;;;;4972680;28;20027;-81
2021/05/25 12:19:24;;;;;;;1.45;0.98;;;;;;;;;;4972043;28;20019;-82
2021/05/25 12:21:50;;;;;;;6.55;0.50;;;;;;;;;;4956889;28;20126;-81
2021/05/25 12:24:29;;;;;;;1.80;0.50;;;;;;;;;;4956832;28;20094;-81
2021/05/25 12:26:56;;;;;;;7.10;0.57;;;;;;;;;;4971803;28;20074;-81
2021/05/25 12:29:24;;;;;;;2.00;0.50;;;;;;;;;;4972049;28;20031;-80
2021/05/25 12:31:50;;;;;;;1.35;0.52;;;;;;;;;;4970953;28;20031;-81
2021/05/25 12:34:18;;;;;;;1.75;0.40;;;;;;;;;;4971428;28;20031;-81
2021/05/25 12:36:54;;;;;;;1.67;0.50;;;;;;;;;;4971947;28;20023;-82
2021/05/25 12:39:33;;;;;;;2.33;0.43;;;;;;;;;;4957671;28;20074;-82
2021/05/25 12:41:59;;;;;;;2.15;0.57;;;;;;;;;;4971562;28;20038;-82
2021/05/25 12:44:29;;;;;;;1.73;0.40;;;;;;;;;;4957491;28;20521;-82
2021/05/25 12:47:04;;;;;;;1.90;0.45;;;;;;;;;;4956765;28;20023;-81
2021/05/25 12:49:34;;;;;;;1.30;0.50;;;;;;;;;;4975227;28;20023;-81
2021/05/25 12:52:19;;;;;;;0.95;0.50;;;;;;;;;;4986998;28;20090;-81
2021/05/25 12:55:03;;;;;;;7.97;0.70;;;;;;;;;;4994999;28;20036;-80
2021/05/25 12:57:43;;;;;;;1.27;0.40;;;;;;;;;;4980001;28;20054;-81
2021/05/25 13:00:12;;;;;;;2.08;0.40;;;;;;;;;;4979686;28;20030;-82
2021/05/25 13:02:40;;;;;;;1.75;0.43;;;;;;;;;;4994672;28;20392;-81
2021/05/25 13:05:10;;;;;;;1.83;0.80;;;;;;;;;;4979753;28;20491;-80
2021/05/25 13:07:52;;;;;;;2.30;0.32;;;;;;;;;;4979209;28;20039;-81
2021/05/25 13:10:26;;;;;;;4.47;0.60;;;;;;;;;;4994020;28;20038;-81
2021/05/25 13:12:56;;;;;;;1.75;0.40;;;;;;;;;;4993697;28;20444;-82
2021/05/25 13:15:35;;;;;;;1.55;0.50;;;;;;;;;;4980745;28;20037;-82
2021/05/25 13:18:02;;;;;;;4.55;0.50;;;;;;;;;;4994424;28;20026;-81
2021/05/25 13:20:29;;;;;;;1.30;0.50;;;;;;;;;;4994777;28;20098;-81
2021/05/25 13:22:55;;;;;;;3.15;0.60;;;;;;;;;;4978956;28;20031;-81
2021/05/25 13:25:29;;;;;;;1.10;0.30;;;;;;;;;;4994706;28;20041;-81
2021/05/25 13:27:59;;;;;;;2.83;0.47;;;;;;;;;;4996289;28;20035;-81
2021/05/25 13:30:42;;;;;;;0.68;0.28;;;;;;;;;;4995195;28;20026;-82
2021/05/25 13:33:08;;;;;;;1.73;0.40;;;;;;;;;;4972485;28;20026;-82
2021/05/25 13:35:34;;;;;;;4.50;0.52;;;;;;;;;;4973817;28;20023;-82
2021/05/25 13:38:03;;;;;;;1.13;0.30;;;;;;;;;;4974012;28;20031;-82
2021/05/25 13:40:30;;;;;;;2.20;0.40;;;;;;;;;;4959701;29;20074;-83
2021/05/25 13:42:56;;;;;;;1.05;0.30;;;;;;;;;;4959683;29;20444;-82
2021/05/25 13:45:22;;;;;;;1.38;0.45;;;;;;;;;;4974410;28;20424;-82
2021/05/25 13:47:48;;;;;;;1.95;0.50;;;;;;;;;;4974396;28;20054;-82
2021/05/25 13:50:24;;;;;;;3.97;0.47;;;;;;;;;;4974315;28;20374;-82
2021/05/25 13:52:55;;;;;;;2.22;0.30;;;;;;;;;;4973771;28;20039;-81
2021/05/25 13:55:24;;;;;;;1.85;0.30;;;;;;;;;;4959140;29;20042;-81
2021/05/25 13:57:53;;;;;;;4.95;0.55;;;;;;;;;;4973575;28;20031;-82
2021/05/25 14:00:32;;;;;;;4.70;0.40;;;;;;;;;;4974204;28;20024;-82
2021/05/25 14:02:58;;;;;;;1.83;0.40;;;;;;;;;;4973960;28;20500;-81
2021/05/25 14:05:25;;;;;;;3.38;0.40;;;;;;;;;;4959224;28;20027;-82
2021/05/25 14:07:53;;;;;;;2.03;0.38;;;;;;;;;;4959042;28;20086;-82
2021/05/25 14:10:19;;;;;;;1.00;0.35;;;;;;;;;;4959183;29;20023;-81
2021/05/25 14:12:45;;;;;;;0.75;0.30;;;;;;;;;;4958519;29;20050;-81
2021/05/25 14:15:11;;;;;;;2.55;0.40;;;;;;;;;;4963298;28;20376;-82
2021/05/25 14:17:37;;;;;;;1.55;0.57;;;;;;;;;;4978206;28;20066;-81
2021/05/25 14:20:04;;;;;;;2.22;0.50;;;;;;;;;;4978878;28;20022;-81
2021/05/25 14:22:30;;;;;;;1.77;0.50;;;;;;;;;;4976601;28;20035;-81
2021/05/25 14:24:57;;;;;;;2.75;0.43;;;;;;;;;;4975997;28;20086;-81
2021/05/25 14:27:23;;;;;;;1.15;0.40;;;;;;;;;;4975960;28;20506;-81
2021/05/25 14:29:49;;;;;;;3.17;0.63;;;;;;;;;;4976376;28;20039;-82
2021/05/25 14:32:16;;;;;;;1.13;0.40;;;;;;;;;;4976263;28;20042;-82
2021/05/25 14:34:42;;;;;;;2.03;0.50;;;;;;;;;;4976797;28;20381;-81
2021/05/25 14:37:09;;;;;;;4.05;0.55;;;;;;;;;;4976739;28;20026;-81
2021/05/25 14:39:35;;;;;;;0.90;0.32;;;;;;;;;;4977946;28;20027;-81
2021/05/25 14:42:01;;;;;;;3.08;0.57;;;;;;;;;;4976679;28;20398;-80
2021/05/25 14:44:29;;;;;;;1.30;0.50;;;;;;;;;;4975966;28;20038;-82
2021/05/25 14:46:57;;;;;;;1.25;0.32;;;;;;;;;;4976617;28;20054;-81
2021/05/25 14:49:24;;;;;;;3.50;0.40;;;;;;;;;;4977699;28;20416;-82
2021/05/25 14:51:50;;;;;;;1.67;0.57;;;;;;;;;;4976746;28;20037;-82
2021/05/25 14:54:16;;;;;;;1.38;0.38;;;;;;;;;;4976670;28;20027;-83
2021/05/25 14:56:44;;;;;;;2.30;0.40;;;;;;;;;;4977185;28;20034;-82